createdAt,value
2023-09-21T00:00:34.141Z,100.00
2023-09-21T00:03:25.730Z,100.00
2023-09-21T00:06:17.550Z,100.00
2023-09-21T00:09:10.281Z,100.00
2023-09-21T00:12:00.609Z,100.00
2023-09-21T00:14:50.921Z,100.00
2023-09-21T00:17:43.893Z,100.00
2023-09-21T00:20:37.643Z,100.00
2023-09-21T00:23:29.365Z,100.00
2023-09-21T00:26:19.947Z,100.00
2023-09-21T00:29:12.188Z,100.00
2023-09-21T00:32:02.538Z,100.00
2023-09-21T00:34:55.598Z,100.00
2023-09-21T00:37:47.809Z,100.00
2023-09-21T00:40:40.246Z,100.00
2023-09-21T00:43:31.223Z,100.00
2023-09-21T00:46:24.006Z,100.00
2023-09-21T00:49:18.508Z,100.00
2023-09-21T00:52:13.485Z,100.00
2023-09-21T00:55:04.145Z,100.00
2023-09-21T00:57:56.636Z,100.00
2023-09-21T01:00:49.019Z,100.00
2023-09-21T01:03:39.892Z,100.00
2023-09-21T01:06:32.152Z,100.00
2023-09-21T01:09:25.136Z,100.00
2023-09-21T01:12:18.254Z,100.00
2023-09-21T01:15:12.162Z,100.00
2023-09-21T01:18:02.601Z,100.00
2023-09-21T01:20:52.975Z,100.00
2023-09-21T01:23:48.141Z,100.00
2023-09-21T01:26:38.540Z,100.00
2023-09-21T01:29:31.273Z,100.00
2023-09-21T01:32:24.561Z,100.00
2023-09-21T01:35:17.354Z,100.00
2023-09-21T01:38:09.104Z,100.00
2023-09-21T01:41:02.571Z,100.00
2023-09-21T01:43:52.862Z,100.00
2023-09-21T01:46:46.648Z,100.00
2023-09-21T01:49:36.887Z,100.00
2023-09-21T01:52:28.748Z,100.00
2023-09-21T01:55:19.569Z,100.00
2023-09-21T01:58:13.163Z,100.00
2023-09-21T02:01:05.143Z,100.00
2023-09-21T02:03:57.370Z,100.00
2023-09-21T02:06:47.706Z,100.00
2023-09-21T02:09:39.111Z,100.00
2023-09-21T02:12:29.371Z,100.00
2023-09-21T02:15:22.472Z,100.00
2023-09-21T02:18:13.299Z,100.00
2023-09-21T02:21:10.114Z,100.00
2023-09-21T02:24:01.654Z,100.00
2023-09-21T02:26:53.686Z,100.00
2023-09-21T02:29:44.226Z,100.00
2023-09-21T02:32:37.382Z,100.00
2023-09-21T02:35:31.157Z,100.00
2023-09-21T02:38:22.151Z,100.00
2023-09-21T02:41:12.579Z,100.00
2023-09-21T02:44:02.963Z,100.00
2023-09-21T02:46:53.885Z,100.00
2023-09-21T02:49:46.772Z,100.00
2023-09-21T02:52:37.560Z,100.00
2023-09-21T02:55:30.989Z,100.00
2023-09-21T02:58:21.421Z,100.00
2023-09-21T03:01:17.361Z,100.00
2023-09-21T03:04:08.324Z,100.00
2023-09-21T03:07:05.386Z,100.00
2023-09-21T03:09:55.667Z,100.00
2023-09-21T03:12:49.317Z,100.00
2023-09-21T03:15:45.293Z,100.00
2023-09-21T03:18:36.010Z,100.00
2023-09-21T03:21:26.594Z,100.00
2023-09-21T03:24:19.795Z,100.00
2023-09-21T03:27:11.945Z,100.00
2023-09-21T03:30:02.564Z,100.00
2023-09-21T03:32:53.154Z,100.00
2023-09-21T03:35:43.607Z,100.00
2023-09-21T03:38:33.902Z,100.00
2023-09-21T03:41:28.372Z,100.00
2023-09-21T03:44:19.073Z,100.00
2023-09-21T03:47:12.599Z,100.00
2023-09-21T03:50:03.248Z,100.00
2023-09-21T03:52:54.307Z,100.00
2023-09-21T03:55:47.858Z,100.00
2023-09-21T03:58:41.112Z,100.00
2023-09-21T04:01:31.660Z,100.00
2023-09-21T04:04:22.324Z,100.00
2023-09-21T04:07:14.067Z,100.00
2023-09-21T04:10:04.912Z,100.00
2023-09-21T04:12:56.794Z,100.00
2023-09-21T04:15:49.816Z,100.00
2023-09-21T04:18:40.262Z,100.00
2023-09-21T04:21:30.749Z,100.00
2023-09-21T04:24:21.427Z,100.00
2023-09-21T04:27:12.860Z,100.00
2023-09-21T04:30:03.443Z,100.00
2023-09-21T04:32:58.737Z,100.00
2023-09-21T04:35:50.232Z,100.00
2023-09-21T04:38:41.140Z,100.00
2023-09-21T04:41:31.944Z,100.00
2023-09-21T04:44:23.693Z,100.00
2023-09-21T04:47:14.098Z,100.00
2023-09-21T04:50:10.192Z,100.00
2023-09-21T04:53:01.205Z,100.00
2023-09-21T04:55:51.492Z,100.00
2023-09-21T04:58:42.000Z,100.00
2023-09-21T05:01:32.585Z,100.00
2023-09-21T05:04:23.031Z,100.00
2023-09-21T05:07:15.940Z,100.00
2023-09-21T05:10:06.961Z,100.00
2023-09-21T05:12:58.938Z,100.00
2023-09-21T05:15:49.463Z,100.00
2023-09-21T05:18:39.848Z,100.00
2023-09-21T05:21:30.270Z,100.00
2023-09-21T05:24:23.146Z,100.00
2023-09-21T05:27:14.303Z,100.00
2023-09-21T05:30:06.306Z,100.00
2023-09-21T05:32:58.092Z,100.00
2023-09-21T05:35:56.935Z,100.00
2023-09-21T05:38:47.323Z,100.00
2023-09-21T05:41:42.658Z,100.00
2023-09-21T05:44:32.906Z,100.00
2023-09-21T05:47:23.353Z,100.00
2023-09-21T05:50:15.077Z,100.00
2023-09-21T05:53:05.358Z,100.00
2023-09-21T05:55:55.621Z,100.00
2023-09-21T05:58:48.468Z,100.00
2023-09-21T06:01:38.720Z,100.00
2023-09-21T06:04:29.279Z,100.00
2023-09-21T06:07:19.629Z,100.00
2023-09-21T06:10:10.635Z,100.00
2023-09-21T06:13:00.947Z,100.00
2023-09-21T06:15:54.117Z,100.00
2023-09-21T06:18:44.852Z,100.00
2023-09-21T06:21:37.496Z,100.00
2023-09-21T06:24:29.430Z,100.00
2023-09-21T06:27:20.263Z,100.00
2023-09-21T06:30:13.537Z,100.00
2023-09-21T06:33:07.105Z,100.00
2023-09-21T06:35:57.346Z,100.00
2023-09-21T06:38:48.232Z,100.00
2023-09-21T06:41:38.992Z,100.00
2023-09-21T06:44:30.683Z,100.00
2023-09-21T06:47:22.611Z,100.00
2023-09-21T06:50:15.521Z,100.00
2023-09-21T06:53:05.905Z,100.00
2023-09-21T06:55:56.458Z,100.00
2023-09-21T06:58:46.689Z,100.00
2023-09-21T07:01:37.079Z,100.00
2023-09-21T07:04:29.508Z,100.00
2023-09-21T07:07:22.636Z,100.00
2023-09-21T07:10:15.994Z,100.00
2023-09-21T07:13:06.945Z,100.00
2023-09-21T07:16:00.233Z,100.00
2023-09-21T07:18:51.229Z,100.00
2023-09-21T07:21:41.697Z,100.00
2023-09-21T07:24:34.950Z,100.00
2023-09-21T07:27:25.943Z,100.00
2023-09-21T07:30:17.986Z,100.00
2023-09-21T07:33:09.605Z,100.00
2023-09-21T07:36:00.057Z,100.00
2023-09-21T07:38:50.365Z,100.00
2023-09-21T07:41:43.723Z,100.00
2023-09-21T07:44:34.021Z,100.00
2023-09-21T07:47:24.567Z,100.00
2023-09-21T07:50:14.849Z,100.00
2023-09-21T07:53:05.628Z,100.00
2023-09-21T07:56:03.148Z,100.00
2023-09-21T07:58:56.032Z,100.00
2023-09-21T08:01:47.941Z,100.00
2023-09-21T08:04:38.430Z,100.00
2023-09-21T08:07:28.926Z,100.00
2023-09-21T08:10:19.435Z,100.00
2023-09-21T08:13:11.754Z,100.00
2023-09-21T08:16:05.327Z,100.00
2023-09-21T08:18:55.682Z,100.00
2023-09-21T08:21:46.188Z,100.00
2023-09-21T08:24:37.472Z,100.00
2023-09-21T08:27:30.743Z,100.00
2023-09-21T08:30:21.302Z,100.00
2023-09-21T08:33:14.203Z,100.00
2023-09-21T08:36:04.715Z,100.00
2023-09-21T08:38:55.309Z,100.00
2023-09-21T08:41:52.262Z,100.00
2023-09-21T08:44:44.937Z,100.00
2023-09-21T08:47:36.145Z,97.35
2023-09-21T08:50:30.972Z,93.73
2023-09-21T08:53:24.335Z,93.23
2023-09-21T08:56:15.602Z,91.40
2023-09-21T08:59:07.585Z,88.84
2023-09-21T09:01:58.175Z,87.60
2023-09-21T09:04:49.998Z,87.22
2023-09-21T09:07:43.912Z,86.26
2023-09-21T09:10:34.505Z,85.38
2023-09-21T09:13:25.076Z,86.36
2023-09-21T09:16:17.545Z,84.75
2023-09-21T09:19:10.548Z,84.91
2023-09-21T09:22:01.397Z,87.07
2023-09-21T09:24:54.729Z,88.08
2023-09-21T09:27:46.443Z,87.24
2023-09-21T09:30:37.196Z,89.38
2023-09-21T09:33:27.589Z,90.45
2023-09-21T09:36:18.088Z,94.45
2023-09-21T09:39:10.106Z,94.66
2023-09-21T09:42:05.344Z,92.47
2023-09-21T09:44:59.480Z,89.91
2023-09-21T09:47:56.678Z,90.68
2023-09-21T09:50:56.455Z,89.80
2023-09-21T09:53:49.247Z,88.77
2023-09-21T09:56:43.053Z,88.82
2023-09-21T09:59:37.016Z,87.56
2023-09-21T10:02:29.396Z,86.21
2023-09-21T10:05:23.721Z,85.56
2023-09-21T10:08:14.255Z,86.24
2023-09-21T10:11:06.486Z,86.73
2023-09-21T10:13:57.880Z,87.55
2023-09-21T10:16:58.510Z,88.04
2023-09-21T10:19:51.426Z,86.60
2023-09-21T10:22:44.339Z,87.65
2023-09-21T10:25:42.901Z,86.69
2023-09-21T10:28:41.473Z,88.40
2023-09-21T10:31:31.818Z,87.03
2023-09-21T10:34:25.155Z,86.91
2023-09-21T10:37:16.859Z,87.17
2023-09-21T10:40:09.928Z,85.36
2023-09-21T10:43:00.325Z,87.19
2023-09-21T10:46:00.619Z,88.09
2023-09-21T10:48:52.540Z,90.07
2023-09-21T10:51:45.420Z,93.56
2023-09-21T10:54:35.817Z,94.85
2023-09-21T10:57:27.935Z,95.56
2023-09-21T11:00:23.671Z,95.49
2023-09-21T11:03:17.354Z,95.19
2023-09-21T11:06:09.557Z,91.52
2023-09-21T11:09:02.639Z,91.18
2023-09-21T11:11:52.959Z,91.06
2023-09-21T11:14:46.873Z,90.89
2023-09-21T11:17:37.730Z,89.89
2023-09-21T11:20:28.509Z,90.79
2023-09-21T11:23:21.419Z,90.70
2023-09-21T11:26:16.369Z,89.45
2023-09-21T11:29:08.975Z,90.79
2023-09-21T11:31:59.250Z,91.30
2023-09-21T11:34:49.999Z,91.27
2023-09-21T11:37:40.392Z,88.89
2023-09-21T11:40:31.014Z,88.01
2023-09-21T11:43:25.054Z,86.32
2023-09-21T11:46:15.475Z,88.91
2023-09-21T11:49:06.668Z,90.06
2023-09-21T11:51:59.173Z,87.51
2023-09-21T11:54:49.691Z,86.16
2023-09-21T11:57:43.601Z,85.71
2023-09-21T12:00:49.987Z,84.59
2023-09-21T12:03:42.529Z,86.96
2023-09-21T12:06:33.919Z,86.22
2023-09-21T12:09:24.206Z,85.81
2023-09-21T12:12:16.000Z,87.10
2023-09-21T12:15:06.962Z,88.61
2023-09-21T12:17:59.897Z,87.82
2023-09-21T12:20:51.388Z,88.91
2023-09-21T12:23:41.876Z,89.04
2023-09-21T12:26:32.397Z,90.20
2023-09-21T12:29:24.142Z,88.32
2023-09-21T12:32:14.415Z,89.96
2023-09-21T12:35:09.340Z,89.21
2023-09-21T12:37:59.667Z,92.25
2023-09-21T12:40:52.238Z,89.52
2023-09-21T12:43:44.587Z,89.50
2023-09-21T12:46:35.015Z,93.12
2023-09-21T12:49:25.329Z,91.21
2023-09-21T12:52:18.223Z,90.51
2023-09-21T12:55:10.060Z,90.87
2023-09-21T12:58:01.331Z,90.09
2023-09-21T13:00:54.135Z,92.60
2023-09-21T13:03:44.694Z,93.57
2023-09-21T13:06:35.892Z,93.45
2023-09-21T13:09:45.645Z,91.80
2023-09-21T13:12:40.888Z,87.35
2023-09-21T13:15:31.820Z,89.49
2023-09-21T13:18:24.442Z,91.28
2023-09-21T13:21:17.384Z,93.96
2023-09-21T13:24:08.719Z,86.88
2023-09-21T13:27:01.648Z,89.46
2023-09-21T13:29:51.958Z,88.02
2023-09-21T13:32:42.250Z,94.91
2023-09-21T13:35:35.099Z,94.17
2023-09-21T13:38:27.081Z,91.79
2023-09-21T13:41:17.633Z,91.29
2023-09-21T13:44:12.241Z,99.98
2023-09-21T13:47:02.673Z,99.84
2023-09-21T13:49:53.325Z,100.00
2023-09-21T13:52:43.817Z,100.00
2023-09-21T13:55:34.070Z,100.00
2023-09-21T13:58:24.361Z,100.00
2023-09-21T14:01:21.072Z,100.00
2023-09-21T14:04:11.470Z,100.00
2023-09-21T14:07:01.882Z,100.00
2023-09-21T14:09:52.137Z,100.00
2023-09-21T14:12:42.607Z,100.00
2023-09-21T14:15:32.923Z,100.00
2023-09-21T14:18:25.769Z,100.00
2023-09-21T14:21:16.056Z,100.00
2023-09-21T14:24:06.925Z,100.00
2023-09-21T14:26:57.246Z,100.00
2023-09-21T14:29:47.492Z,100.00
2023-09-21T14:32:38.272Z,100.00
2023-09-21T14:35:31.388Z,100.00
2023-09-21T14:38:22.233Z,100.00
2023-09-21T14:41:12.561Z,100.00
2023-09-21T14:44:03.032Z,100.00
2023-09-21T14:46:53.335Z,100.00
2023-09-21T14:49:43.870Z,100.00
2023-09-21T14:52:36.880Z,100.00
2023-09-21T14:55:27.276Z,100.00
2023-09-21T14:58:17.524Z,100.00
2023-09-21T15:01:07.964Z,100.00
2023-09-21T15:03:58.438Z,100.00
2023-09-21T15:06:51.014Z,100.00
2023-09-21T15:09:46.204Z,100.00
2023-09-21T15:12:37.149Z,100.00
2023-09-21T15:15:27.606Z,100.00
2023-09-21T15:21:10.101Z,100.00
2023-09-21T15:24:02.138Z,100.00
2023-09-21T15:26:57.959Z,100.00
2023-09-21T15:29:51.020Z,100.00
2023-09-21T15:32:41.386Z,100.00
2023-09-21T15:35:31.874Z,100.00
2023-09-21T15:38:22.402Z,100.00
2023-09-21T15:41:14.749Z,100.00
2023-09-21T15:44:08.456Z,100.00
2023-09-21T15:46:59.900Z,100.00
2023-09-21T15:49:50.592Z,100.00
2023-09-21T15:52:40.892Z,100.00
2023-09-21T15:55:31.557Z,100.00
2023-09-21T15:58:22.492Z,100.00
2023-09-21T16:01:15.759Z,100.00
2023-09-21T16:04:08.744Z,100.00
2023-09-21T16:07:00.087Z,100.00
2023-09-21T16:09:50.475Z,100.00
2023-09-21T16:12:40.902Z,100.00
2023-09-21T16:15:31.480Z,100.00
2023-09-21T16:18:24.509Z,100.00
2023-09-21T16:21:15.331Z,100.00
2023-09-21T16:24:06.161Z,100.00
2023-09-21T16:27:00.065Z,100.00
2023-09-21T16:29:50.967Z,100.00
2023-09-21T16:32:41.263Z,100.00
2023-09-21T16:35:37.385Z,100.00
2023-09-21T16:38:27.623Z,100.00
2023-09-21T16:41:18.564Z,100.00
2023-09-21T16:44:09.253Z,100.00
2023-09-21T16:46:59.596Z,100.00
2023-09-21T16:49:50.521Z,100.00
2023-09-21T16:52:43.476Z,100.00
2023-09-21T16:55:34.821Z,100.00
2023-09-21T16:58:25.132Z,100.00
2023-09-21T17:01:16.037Z,100.00
2023-09-21T17:04:07.313Z,100.00
2023-09-21T17:06:58.257Z,100.00
2023-09-21T17:09:51.263Z,100.00
2023-09-21T17:12:42.168Z,100.00
2023-09-21T17:15:33.329Z,100.00
2023-09-21T17:18:25.275Z,100.00
2023-09-21T17:21:16.657Z,100.00
2023-09-21T17:24:07.619Z,100.00
2023-09-21T17:27:00.580Z,100.00
2023-09-21T17:29:51.774Z,100.00
2023-09-21T17:32:42.764Z,100.00
2023-09-21T17:35:33.701Z,100.00
2023-09-21T17:38:24.090Z,100.00
2023-09-21T17:41:14.468Z,100.00
2023-09-21T17:44:09.102Z,100.00
2023-09-21T17:47:00.473Z,100.00
2023-09-21T17:49:50.824Z,100.00
2023-09-21T17:52:41.855Z,100.00
2023-09-21T17:55:32.227Z,100.00
2023-09-21T17:58:22.650Z,100.00
2023-09-21T18:01:15.639Z,100.00
2023-09-21T18:04:06.713Z,100.00
2023-09-21T18:06:57.806Z,100.00
2023-09-21T18:09:48.120Z,100.00
2023-09-21T18:12:38.514Z,100.00
2023-09-21T18:15:29.153Z,100.00
2023-09-21T18:18:22.670Z,100.00
2023-09-21T18:21:13.777Z,100.00
2023-09-21T18:24:04.167Z,100.00
2023-09-21T18:26:55.439Z,100.00
2023-09-21T18:29:45.753Z,100.00
2023-09-21T18:32:36.097Z,100.00
2023-09-21T18:35:29.724Z,100.00
2023-09-21T18:38:20.594Z,100.00
2023-09-21T18:41:11.016Z,100.00
2023-09-21T18:44:02.150Z,100.00
2023-09-21T18:46:52.629Z,100.00
2023-09-21T18:49:43.457Z,100.00
2023-09-21T18:52:37.322Z,100.00
2023-09-21T18:55:27.600Z,100.00
2023-09-21T18:58:17.860Z,100.00
2023-09-21T19:01:13.272Z,100.00
2023-09-21T19:04:03.677Z,100.00
2023-09-21T19:06:54.503Z,100.00
2023-09-21T19:09:47.438Z,100.00
2023-09-21T19:12:38.320Z,100.00
2023-09-21T19:15:28.586Z,100.00
2023-09-21T19:18:19.390Z,100.00
2023-09-21T19:21:11.079Z,100.00
2023-09-21T19:24:02.250Z,100.00
2023-09-21T19:26:55.906Z,100.00
2023-09-21T19:29:46.248Z,100.00
2023-09-21T19:32:37.613Z,100.00
2023-09-21T19:35:28.021Z,100.00
2023-09-21T19:38:18.262Z,100.00
2023-09-21T19:41:08.631Z,100.00
2023-09-21T19:44:01.695Z,100.00
2023-09-21T19:46:52.507Z,100.00
2023-09-21T19:49:43.444Z,100.00
2023-09-21T19:52:34.012Z,100.00
2023-09-21T19:55:24.264Z,100.00
2023-09-21T19:58:15.680Z,100.00
2023-09-21T20:01:09.809Z,100.00
2023-09-21T20:04:00.727Z,100.00
2023-09-21T20:06:51.688Z,100.00
2023-09-21T20:09:42.984Z,100.00
2023-09-21T20:12:34.184Z,100.00
2023-09-21T20:15:24.513Z,100.00
2023-09-21T20:18:17.379Z,100.00
2023-09-21T20:21:08.451Z,100.00
2023-09-21T20:23:58.723Z,100.00
2023-09-21T20:26:49.035Z,100.00
2023-09-21T20:29:40.006Z,100.00
2023-09-21T20:32:31.027Z,100.00
2023-09-21T20:35:25.235Z,100.00
2023-09-21T20:38:15.543Z,100.00
2023-09-21T20:41:06.472Z,100.00
2023-09-21T20:43:56.695Z,100.00
2023-09-21T20:46:46.942Z,100.00
2023-09-21T20:49:37.281Z,100.00
2023-09-21T20:52:30.164Z,100.00
2023-09-21T20:55:20.400Z,100.00
2023-09-21T20:58:10.651Z,100.00
2023-09-21T21:01:01.101Z,100.00
2023-09-21T21:03:53.493Z,100.00
2023-09-21T21:06:44.036Z,100.00
2023-09-21T21:09:37.558Z,100.00
2023-09-21T21:12:27.858Z,100.00
2023-09-21T21:15:18.110Z,100.00
2023-09-21T21:18:08.641Z,100.00
2023-09-21T21:20:58.993Z,100.00
2023-09-21T21:23:49.195Z,100.00
2023-09-21T21:26:42.054Z,100.00
2023-09-21T21:29:32.451Z,100.00
2023-09-21T21:32:23.858Z,100.00
2023-09-21T21:35:17.422Z,100.00
2023-09-21T21:38:07.727Z,100.00
2023-09-21T21:40:58.235Z,100.00
2023-09-21T21:43:51.120Z,100.00
2023-09-21T21:46:41.358Z,100.00
2023-09-21T21:49:32.267Z,100.00
2023-09-21T21:52:22.747Z,100.00
2023-09-21T21:55:13.259Z,100.00
2023-09-21T21:58:03.510Z,100.00
2023-09-21T22:00:57.110Z,100.00
2023-09-21T22:03:47.818Z,100.00
2023-09-21T22:06:38.389Z,100.00
2023-09-21T22:09:28.723Z,100.00
2023-09-21T22:12:19.662Z,100.00
2023-09-21T22:15:11.493Z,100.00
2023-09-21T22:18:04.417Z,100.00
2023-09-21T22:20:54.691Z,100.00
2023-09-21T22:23:45.256Z,100.00
2023-09-21T22:26:36.581Z,100.00
2023-09-21T22:29:26.948Z,100.00
2023-09-21T22:32:17.199Z,100.00
2023-09-21T22:35:11.764Z,100.00
2023-09-21T22:38:13.984Z,100.00
2023-09-21T22:41:05.421Z,100.00
2023-09-21T22:43:55.784Z,100.00
2023-09-21T22:46:49.340Z,100.00
2023-09-21T22:49:41.064Z,100.00
2023-09-21T22:52:35.150Z,100.00
2023-09-21T22:55:26.268Z,100.00
2023-09-21T22:58:16.921Z,100.00
2023-09-21T23:01:07.500Z,100.00
2023-09-21T23:03:58.101Z,100.00
2023-09-21T23:06:48.455Z,100.00
2023-09-21T23:09:41.380Z,100.00
2023-09-21T23:12:35.294Z,100.00
2023-09-21T23:15:26.325Z,100.00
2023-09-21T23:18:17.874Z,100.00
2023-09-21T23:21:10.238Z,100.00
2023-09-21T23:24:00.783Z,100.00
2023-09-21T23:26:54.919Z,100.00
2023-09-21T23:29:48.586Z,100.00
2023-09-21T23:32:40.068Z,100.00
2023-09-21T23:35:30.409Z,100.00
2023-09-21T23:38:20.946Z,100.00
2023-09-21T23:41:13.003Z,100.00
2023-09-21T23:44:05.934Z,100.00
2023-09-21T23:46:56.304Z,100.00
2023-09-21T23:49:47.231Z,100.00
2023-09-21T23:52:37.825Z,100.00
2023-09-21T23:55:28.091Z,100.00
2023-09-21T23:58:18.433Z,100.00
